Time;durP1;ratioP1;P1;durP2;ratioP2;P2;SDS_P1;SDS_P2;PMS_P1;PMS_P2;Temp;Humidity;BMP_temperature;BMP_pressure;BME280_temperature;BME280_humidity;BME280_pressure;Samples;Min_cycle;Max_cycle;Signal;HPM_P1;HPM_P2
2022/03/02 00:01:21;;;;;;;12.20;7.40;;;;;;;-0.74;67.73;95248.97;5053377;28;20036;-70
2022/03/02 00:03:47;;;;;;;10.73;7.05;;;;;;;-0.74;67.15;95246.41;5070113;28;20464;-70
2022/03/02 00:06:12;;;;;;;12.18;6.68;;;;;;;-0.74;66.27;95239.59;5071236;28;20550;-69
2022/03/02 00:08:38;;;;;;;11.65;6.97;;;;;;;-0.73;66.33;95235.31;5070035;28;20452;-70
2022/03/02 00:11:03;;;;;;;11.00;6.88;;;;;;;-0.77;66.21;95228.66;5069799;28;20054;-70
2022/03/02 00:13:29;;;;;;;12.10;7.38;;;;;;;-0.73;65.72;95232.78;5070135;28;20078;-70
2022/03/02 00:15:55;;;;;;;11.35;7.75;;;;;;;-0.73;66.01;95230.22;5069839;28;20495;-70
2022/03/02 00:18:20;;;;;;;12.45;6.97;;;;;;;-0.74;66.06;95226.00;5069963;28;20521;-70
2022/03/02 00:20:45;;;;;;;11.65;7.75;;;;;;;-0.76;66.03;95231.16;5071007;28;20028;-69
2022/03/02 00:23:11;;;;;;;11.45;7.05;;;;;;;-0.79;65.92;95227.88;5069802;28;20036;-70
2022/03/02 00:25:36;;;;;;;11.00;7.05;;;;;;;-0.83;67.14;95224.59;5069666;28;20020;-69
2022/03/02 00:28:02;;;;;;;11.52;7.35;;;;;;;-0.87;66.32;95206.88;5052999;28;20049;-69
2022/03/02 00:30:28;;;;;;;12.05;7.72;;;;;;;-0.79;65.87;95217.66;5086540;28;20034;-69
2022/03/02 00:32:55;;;;;;;14.32;8.27;;;;;;;-0.82;67.14;95207.56;5069707;28;20546;-69
2022/03/02 00:35:20;;;;;;;13.63;8.48;;;;;;;-0.84;67.87;95201.66;5070104;28;20047;-70
2022/03/02 00:37:46;;;;;;;15.70;9.52;;;;;;;-0.83;67.44;95193.97;5055349;28;20044;-70
2022/03/02 00:40:12;;;;;;;16.52;9.70;;;;;;;-0.84;67.25;95188.91;5070736;28;20057;-70
2022/03/02 00:42:38;;;;;;;12.23;7.68;;;;;;;-0.82;66.96;95203.28;5069520;28;20040;-70
2022/03/02 00:45:04;;;;;;;13.07;7.82;;;;;;;-0.91;66.91;95184.00;5070758;28;20032;-70
2022/03/02 00:47:29;;;;;;;12.55;7.88;;;;;;;-0.84;67.50;95194.84;5069598;28;20025;-69
2022/03/02 00:49:55;;;;;;;13.10;8.10;;;;;;;-0.90;68.16;95185.66;5069677;28;20509;-70
2022/03/02 00:52:21;;;;;;;12.45;8.27;;;;;;;-0.97;68.25;95186.78;5069318;28;20029;-70
2022/03/02 00:54:47;;;;;;;11.68;7.90;;;;;;;-0.94;67.46;95179.00;5069313;28;20028;-69
2022/03/02 00:57:12;;;;;;;11.52;7.50;;;;;;;-0.96;67.37;95173.13;5069279;28;20028;-70
2022/03/02 00:59:37;;;;;;;13.88;7.82;;;;;;;-1.01;67.17;95172.44;5069602;28;20029;-69
2022/03/02 01:02:03;;;;;;;10.30;7.65;;;;;;;-1.01;67.77;95171.59;5069287;28;20418;-69
2022/03/02 01:04:28;;;;;;;12.25;7.82;;;;;;;-1.06;68.74;95176.84;5069583;28;20033;-70
2022/03/02 01:06:54;;;;;;;13.13;8.55;;;;;;;-1.06;68.14;95176.00;5070529;28;20505;-70
2022/03/02 01:09:19;;;;;;;14.30;8.15;;;;;;;-1.10;67.59;95166.81;5074556;28;20475;-70
2022/03/02 01:11:45;;;;;;;11.63;7.53;;;;;;;-1.13;67.21;95165.19;5073369;28;20475;-69
2022/03/02 01:14:10;;;;;;;10.98;7.60;;;;;;;-1.15;67.36;95162.66;5073575;28;20024;-69
2022/03/02 01:16:36;;;;;;;9.88;7.18;;;;;;;-1.15;68.21;95165.22;5090179;28;20044;-69
2022/03/02 01:19:01;;;;;;;11.63;6.78;;;;;;;-1.17;68.04;95163.59;5073451;28;20028;-69
2022/03/02 01:21:27;;;;;;;10.30;6.88;;;;;;;-1.21;68.35;95162.03;5056434;28;20425;-69
2022/03/02 01:23:53;;;;;;;16.05;8.73;;;;;;;-1.25;67.95;95160.47;5056515;28;20043;-70
2022/03/02 01:26:21;;;;;;;13.05;8.18;;;;;;;-1.31;67.77;95155.53;5073102;28;20032;-70
2022/03/02 01:28:47;;;;;;;19.10;10.52;;;;;;;-1.38;67.45;95152.38;5056448;28;20406;-69
2022/03/02 01:31:12;;;;;;;18.55;9.55;;;;;;;-1.38;67.87;95152.38;5074885;28;20040;-69
2022/03/02 01:33:38;;;;;;;20.60;11.88;;;;;;;-1.43;67.64;95152.50;5092551;28;20016;-70
2022/03/02 01:36:03;;;;;;;20.75;11.32;;;;;;;-1.46;67.86;95155.16;5093129;28;20032;-70
2022/03/02 01:38:29;;;;;;;23.63;12.20;;;;;;;-1.47;67.67;95148.38;5076046;28;20290;-70
2022/03/02 01:40:54;;;;;;;17.10;10.85;;;;;;;-1.50;67.42;95145.94;5076150;28;20031;-69
2022/03/02 01:43:19;;;;;;;18.60;11.35;;;;;;;-1.65;67.62;95126.00;5093109;28;20090;-70
2022/03/02 01:45:45;;;;;;;18.63;11.80;;;;;;;-1.70;67.74;95122.75;5092977;28;20591;-69
2022/03/02 01:48:11;;;;;;;21.33;12.30;;;;;;;-1.62;67.80;95146.28;5093030;28;20024;-70
2022/03/02 01:50:36;;;;;;;17.88;12.35;;;;;;;-1.74;67.91;95129.66;5056428;28;20040;-69
2022/03/02 01:53:01;;;;;;;21.75;13.20;;;;;;;-1.68;68.15;95141.38;5072642;28;20048;-70
2022/03/02 01:55:27;;;;;;;20.25;12.63;;;;;;;-1.84;68.04;95125.72;5072529;28;20029;-70
2022/03/02 01:57:52;;;;;;;22.42;13.00;;;;;;;-1.75;67.78;95139.91;5055895;28;20059;-69
2022/03/02 02:00:20;;;;;;;20.02;12.35;;;;;;;-1.84;68.50;95134.22;5039102;28;20064;-69
2022/03/02 02:02:45;;;;;;;20.05;11.35;;;;;;;-1.87;68.59;95130.91;5072297;28;20490;-69
2022/03/02 02:05:11;;;;;;;17.05;11.05;;;;;;;-1.90;68.52;95124.19;5055737;28;20103;-69
2022/03/02 02:07:36;;;;;;;19.85;11.70;;;;;;;-1.97;68.56;95109.97;5055744;28;20453;-70
2022/03/02 02:10:03;;;;;;;21.67;11.70;;;;;;;-1.96;68.55;95126.09;5073432;28;20481;-69
2022/03/02 02:12:28;;;;;;;19.75;12.15;;;;;;;-1.98;68.01;95115.94;5055568;28;20052;-69
2022/03/02 02:14:53;;;;;;;22.65;13.05;;;;;;;-2.02;68.23;95122.00;5073406;28;20414;-69
2022/03/02 02:17:19;;;;;;;20.20;12.90;;;;;;;-2.03;68.11;95115.25;5071998;28;20043;-70
2022/03/02 02:19:44;;;;;;;17.73;11.68;;;;;;;-2.09;67.99;95118.81;5055179;28;20514;-70
2022/03/02 02:22:10;;;;;;;18.67;12.30;;;;;;;-2.15;67.42;95110.50;5072049;28;20029;-70
2022/03/02 02:24:35;;;;;;;18.48;11.32;;;;;;;-2.12;67.13;95120.59;5038820;28;20028;-69
2022/03/02 02:27:01;;;;;;;20.58;12.13;;;;;;;-2.17;67.13;95117.34;5071820;28;20029;-69
2022/03/02 02:29:26;;;;;;;20.20;11.65;;;;;;;-2.23;67.32;95117.53;5055477;28;20039;-69
2022/03/02 02:31:52;;;;;;;20.08;11.43;;;;;;;-2.33;67.24;95111.88;5055427;28;20020;-69
2022/03/02 02:34:17;;;;;;;20.55;12.23;;;;;;;-2.33;67.67;95111.88;5055271;28;20560;-69
2022/03/02 02:36:42;;;;;;;20.00;11.30;;;;;;;-2.36;67.40;95111.97;5054992;28;20031;-69
2022/03/02 02:39:09;;;;;;;17.38;11.02;;;;;;;-2.44;67.28;95099.44;5054729;28;20059;-69
2022/03/02 02:41:34;;;;;;;18.02;11.15;;;;;;;-2.42;67.60;95112.09;5055047;28;20043;-69
2022/03/02 02:44:00;;;;;;;17.38;11.02;;;;;;;-2.42;67.79;95117.19;5073177;28;20032;-70
2022/03/02 02:46:25;;;;;;;14.68;9.60;;;;;;;-2.49;67.63;95102.09;5072812;28;20399;-69
2022/03/02 02:48:51;;;;;;;16.25;10.55;;;;;;;-2.53;67.43;95109.88;5071737;28;20040;-69
2022/03/02 02:51:16;;;;;;;15.68;10.10;;;;;;;-2.61;67.96;95107.53;5071448;28;20025;-70
2022/03/02 02:53:41;;;;;;;14.98;10.07;;;;;;;-2.67;67.29;95101.75;5054715;28;20044;-70
2022/03/02 02:56:07;;;;;;;15.38;9.63;;;;;;;-2.74;67.73;95101.94;5054743;28;20387;-69
2022/03/02 02:58:32;;;;;;;13.80;8.18;;;;;;;-2.69;67.83;95106.91;5072878;28;20071;-69
2022/03/02 03:00:58;;;;;;;14.00;8.70;;;;;;;-2.71;67.60;95109.47;5054586;28;20024;-69
2022/03/02 03:03:24;;;;;;;16.65;9.93;;;;;;;-2.68;67.67;95112.81;5037974;28;20483;-69
2022/03/02 03:05:52;;;;;;;16.35;10.07;;;;;;;-2.72;67.36;95107.81;5037906;28;20024;-69
2022/03/02 03:08:17;;;;;;;18.67;9.88;;;;;;;-2.77;67.37;95107.09;5072360;28;20028;-69
2022/03/02 03:10:43;;;;;;;13.15;9.00;;;;;;;-2.79;66.90;95103.75;5071083;28;20032;-70
2022/03/02 03:13:09;;;;;;;12.23;7.53;;;;;;;-2.80;66.92;95107.19;5054470;28;20035;-69
2022/03/02 03:15:35;;;;;;;11.63;7.63;;;;;;;-2.80;67.33;95112.28;5054692;28;20064;-69
2022/03/02 03:18:01;;;;;;;13.52;8.05;;;;;;;-2.87;67.31;95112.47;5071038;28;20048;-69
2022/03/02 03:20:26;;;;;;;13.15;7.93;;;;;;;-2.86;67.28;95109.06;5054381;28;20032;-69
2022/03/02 03:22:53;;;;;;;11.27;6.95;;;;;;;-2.90;66.86;95107.44;5037613;28;20040;-69
2022/03/02 03:25:19;;;;;;;15.38;8.30;;;;;;;-2.99;67.01;95100.91;5054330;28;20491;-69
2022/03/02 03:27:45;;;;;;;16.20;9.52;;;;;;;-2.96;67.53;95111.00;5070770;28;20032;-69
2022/03/02 03:30:11;;;;;;;12.80;8.52;;;;;;;-2.99;67.20;95105.97;5053462;28;20032;-69
2022/03/02 03:32:36;;;;;;;16.17;8.38;;;;;;;-2.93;67.46;95109.19;5070709;28;20479;-69
2022/03/02 03:35:03;;;;;;;12.48;8.38;;;;;;;-3.00;67.34;95106.88;5070565;28;20058;-69
2022/03/02 03:37:28;;;;;;;18.38;8.07;;;;;;;-3.03;67.43;95110.31;5054088;28;20039;-69
2022/03/02 03:39:54;;;;;;;19.50;8.88;;;;;;;-3.04;67.35;95108.63;5071609;28;20037;-69
2022/03/02 03:42:19;;;;;;;18.80;9.50;;;;;;;-3.05;67.06;95112.06;5053673;28;20415;-69
2022/03/02 03:44:45;;;;;;;19.50;10.38;;;;;;;-3.05;67.16;95106.97;5070416;28;20028;-69
2022/03/02 03:47:10;;;;;;;15.40;8.18;;;;;;;-3.00;67.22;95100.06;5070539;28;20025;-69
2022/03/02 03:49:35;;;;;;;16.27;8.35;;;;;;;-3.10;67.10;95092.72;5053967;28;20036;-69
2022/03/02 03:52:01;;;;;;;22.27;9.30;;;;;;;-3.08;67.20;95101.97;5051630;28;20039;-70
2022/03/02 03:54:27;;;;;;;17.75;8.45;;;;;;;-3.09;67.62;95096.91;5073824;28;20041;-69
2022/03/02 03:56:52;;;;;;;21.52;9.90;;;;;;;-3.05;67.56;95095.97;5056878;28;20032;-69
2022/03/02 03:59:18;;;;;;;12.63;8.35;;;;;;;-3.05;66.93;95096.81;5073681;28;20036;-69
2022/03/02 04:01:43;;;;;;;11.77;7.50;;;;;;;-3.06;67.30;95089.25;5073436;28;20048;-69
2022/03/02 04:04:08;;;;;;;12.95;7.95;;;;;;;-3.08;67.36;95091.81;5091941;28;20032;-69
2022/03/02 04:06:34;;;;;;;14.65;8.35;;;;;;;-3.04;67.02;95097.63;5073394;28;20387;-69
2022/03/02 04:08:59;;;;;;;11.80;7.68;;;;;;;-3.07;67.20;95096.00;5073576;28;20082;-69
2022/03/02 04:11:25;;;;;;;11.73;7.97;;;;;;;-3.15;67.37;95091.13;5090120;28;20482;-70
2022/03/02 04:13:50;;;;;;;13.77;7.70;;;;;;;-3.08;67.61;95096.06;5056724;28;20032;-69
2022/03/02 04:16:15;;;;;;;12.02;7.38;;;;;;;-3.03;67.82;95102.69;5091339;28;20509;-69
2022/03/02 04:18:41;;;;;;;16.13;8.40;;;;;;;-3.07;68.20;95097.72;5090287;28;20482;-69
2022/03/02 04:21:06;;;;;;;18.23;8.63;;;;;;;-3.09;68.57;95099.47;5090048;28;20050;-69
2022/03/02 04:23:32;;;;;;;15.45;8.38;;;;;;;-3.06;68.65;95094.31;5090110;28;20051;-69
2022/03/02 04:25:57;;;;;;;15.68;8.63;;;;;;;-3.04;68.31;95097.63;5091717;28;20035;-69
2022/03/02 04:28:23;;;;;;;13.73;7.32;;;;;;;-3.04;68.66;95095.91;5073249;28;20414;-69
2022/03/02 04:30:48;;;;;;;19.92;10.73;;;;;;;-3.04;68.14;95097.63;5091049;28;20482;-69
2022/03/02 04:33:14;;;;;;;16.63;9.27;;;;;;;-3.00;68.32;95096.69;5090016;28;20135;-69
2022/03/02 04:35:39;;;;;;;13.85;8.05;;;;;;;-3.00;67.91;95097.53;5089782;28;20508;-69
2022/03/02 04:38:05;;;;;;;12.40;7.43;;;;;;;-2.95;68.29;95095.72;5072806;28;20046;-69
2022/03/02 04:40:30;;;;;;;10.23;6.70;;;;;;;-2.94;68.49;95084.66;5090158;28;20409;-69
2022/03/02 04:42:56;;;;;;;11.95;7.03;;;;;;;-2.88;68.60;95088.75;5072906;28;20035;-69
2022/03/02 04:45:27;;;;;;;13.15;6.95;;;;;;;-2.82;68.88;95092.84;5072913;28;20020;-69
2022/03/02 04:47:54;;;;;;;11.30;6.78;;;;;;;-2.81;68.90;95091.97;5057790;28;20584;-69
2022/03/02 04:50:19;;;;;;;12.38;7.18;;;;;;;-2.77;68.79;95091.00;5055669;28;20493;-69
2022/03/02 04:52:46;;;;;;;11.63;6.28;;;;;;;-2.71;69.38;95086.59;5069647;28;20037;-69
2022/03/02 04:55:12;;;;;;;11.10;7.15;;;;;;;-2.65;69.33;95087.28;5069470;28;20028;-69
2022/03/02 04:57:45;;;;;;;10.45;6.68;;;;;;;-2.62;69.35;95084.66;5069574;28;20041;-69
2022/03/02 05:00:14;;;;;;;9.40;6.57;;;;;;;-2.61;69.22;95079.56;5070606;28;20024;-69
2022/03/02 05:02:40;;;;;;;11.82;7.55;;;;;;;-2.55;69.45;95086.19;5069445;28;20044;-69
2022/03/02 05:05:06;;;;;;;9.35;6.28;;;;;;;-2.53;69.74;95082.72;5069313;28;20075;-69
2022/03/02 05:07:31;;;;;;;8.85;6.30;;;;;;;-2.50;69.67;95089.44;5069303;28;20047;-70
2022/03/02 05:09:57;;;;;;;10.15;6.75;;;;;;;-2.42;68.41;95082.44;5069339;28;20028;-69
2022/03/02 05:12:22;;;;;;;10.32;6.40;;;;;;;-2.40;68.65;95070.47;5052676;28;20033;-69
2022/03/02 05:14:51;;;;;;;8.95;5.88;;;;;;;-2.33;69.33;95071.16;5069322;28;20021;-69
2022/03/02 05:17:16;;;;;;;9.02;6.18;;;;;;;-2.34;69.50;95077.97;5069150;28;20027;-70
2022/03/02 05:19:42;;;;;;;8.30;6.10;;;;;;;-2.38;70.18;95076.34;5069307;28;20029;-69
2022/03/02 05:22:07;;;;;;;11.73;6.43;;;;;;;-2.46;69.64;95065.56;5052473;28;20120;-69
2022/03/02 05:24:32;;;;;;;9.07;6.20;;;;;;;-2.37;69.34;95075.47;5069440;28;20445;-69
2022/03/02 05:26:58;;;;;;;8.18;5.45;;;;;;;-2.40;69.06;95070.47;5070288;28;20483;-69
2022/03/02 05:29:23;;;;;;;8.95;6.25;;;;;;;-2.30;69.55;95082.06;5052649;28;20456;-70
2022/03/02 05:31:49;;;;;;;9.25;6.35;;;;;;;-2.32;69.25;95080.44;5052285;28;20033;-69
2022/03/02 05:34:14;;;;;;;8.82;6.13;;;;;;;-2.26;69.72;95078.56;5069317;28;20033;-69
2022/03/02 05:36:40;;;;;;;8.98;6.15;;;;;;;-2.20;69.83;95081.78;5070409;28;20029;-69
2022/03/02 05:39:05;;;;;;;8.73;6.10;;;;;;;-2.13;69.56;95079.03;5081377;28;20056;-69
2022/03/02 05:41:31;;;;;;;7.80;5.90;;;;;;;-2.05;69.69;95078.81;5089170;28;20035;-70
2022/03/02 05:43:56;;;;;;;12.02;7.25;;;;;;;-1.97;69.66;95078.59;5055849;28;20036;-69
2022/03/02 05:46:22;;;;;;;8.65;5.82;;;;;;;-1.93;69.45;95078.44;5071248;28;20024;-69
2022/03/02 05:48:49;;;;;;;11.75;7.07;;;;;;;-1.85;69.78;95088.41;5066662;28;20118;-69
2022/03/02 05:51:15;;;;;;;9.52;6.22;;;;;;;-1.84;69.97;95077.31;5057120;28;20044;-69
2022/03/02 05:53:40;;;;;;;8.48;5.90;;;;;;;-1.77;70.50;95081.38;5069753;28;20134;-69
2022/03/02 05:56:06;;;;;;;11.85;7.35;;;;;;;-1.70;70.64;95084.53;5055706;28;20383;-69
2022/03/02 05:58:32;;;;;;;10.73;7.25;;;;;;;-1.65;70.51;95090.34;5065915;28;20612;-69
2022/03/02 06:00:59;;;;;;;9.93;6.93;;;;;;;-1.63;70.58;95089.41;5084664;28;20024;-69
2022/03/02 06:03:25;;;;;;;12.80;7.95;;;;;;;-1.64;70.65;95080.13;5085079;28;20399;-69
2022/03/02 06:05:50;;;;;;;10.15;7.22;;;;;;;-1.52;70.24;95088.25;5088890;28;20023;-69
2022/03/02 06:08:16;;;;;;;10.57;7.68;;;;;;;-1.50;69.60;95082.22;5056494;28;20421;-69
2022/03/02 06:10:41;;;;;;;11.23;7.60;;;;;;;-1.41;69.43;95092.13;5089478;28;20092;-69
2022/03/02 06:13:07;;;;;;;12.32;8.60;;;;;;;-1.33;68.36;95085.97;5089935;28;20422;-69
2022/03/02 06:15:33;;;;;;;14.30;8.90;;;;;;;-1.33;68.71;95094.44;5083879;28;20035;-69
2022/03/02 06:18:03;;;;;;;11.52;8.18;;;;;;;-1.28;68.74;95097.69;5073904;28;20051;-69
2022/03/02 06:20:29;;;;;;;13.27;8.38;;;;;;;-1.24;69.07;95098.41;5086809;28;20032;-69
2022/03/02 06:22:55;;;;;;;14.60;8.10;;;;;;;-1.25;68.18;95096.75;5064976;28;20493;-70
2022/03/02 06:25:20;;;;;;;12.75;8.57;;;;;;;-1.27;68.51;95081.47;5088644;28;20550;-69
2022/03/02 06:27:46;;;;;;;11.75;8.15;;;;;;;-1.15;68.65;95093.00;5051429;28;20120;-70
2022/03/02 06:30:12;;;;;;;12.82;8.98;;;;;;;-1.24;68.41;95066.09;5070525;28;20024;-69
2022/03/02 06:32:38;;;;;;;11.82;8.20;;;;;;;-1.03;68.04;95089.19;5072216;28;20040;-68
2022/03/02 06:35:04;;;;;;;14.48;8.77;;;;;;;-1.03;66.53;95082.41;5067627;28;20036;-68
2022/03/02 06:37:33;;;;;;;13.57;9.35;;;;;;;-0.99;66.32;95083.97;5088717;28;20058;-68
2022/03/02 06:40:01;;;;;;;14.05;8.88;;;;;;;-0.98;66.93;95079.69;5090440;28;20048;-67
2022/03/02 06:42:40;;;;;;;13.73;9.27;;;;;;;-0.99;67.15;95078.84;5051872;28;20035;-71
2022/03/02 06:45:17;;;;;;;12.48;8.68;;;;;;;-0.92;66.28;95077.78;5091904;28;20020;-69
2022/03/02 06:47:57;;;;;;;12.10;8.68;;;;;;;-0.83;66.37;95084.28;5073401;28;20039;-70
2022/03/02 06:50:25;;;;;;;13.05;8.77;;;;;;;-0.78;66.80;95082.41;5088360;28;20028;-68
2022/03/02 06:52:53;;;;;;;13.50;8.60;;;;;;;-0.77;66.76;95076.41;5073261;28;20043;-70
2022/03/02 06:55:18;;;;;;;13.45;8.57;;;;;;;-0.69;66.67;95073.59;5067397;28;20559;-67
2022/03/02 06:57:54;;;;;;;13.80;9.38;;;;;;;-0.69;65.95;95074.44;5052345;28;20202;-70
2022/03/02 07:00:20;;;;;;;17.13;9.80;;;;;;;-0.68;66.58;95070.97;5084218;28;20028;-69
2022/03/02 07:03:19;;;;;;;12.90;8.65;;;;;;;-0.62;65.55;95077.59;5063194;28;20028;-70
2022/03/02 07:05:44;;;;;;;12.38;9.05;;;;;;;-0.61;66.10;95075.88;5048720;28;20517;-69
2022/03/02 07:08:10;;;;;;;15.10;9.50;;;;;;;-0.55;65.46;95071.41;5072449;28;20037;-70
2022/03/02 07:10:36;;;;;;;14.82;9.52;;;;;;;-0.54;65.46;95073.03;5073643;28;20040;-69
2022/03/02 07:13:05;;;;;;;17.08;10.57;;;;;;;-0.50;65.49;95079.72;5062862;28;20039;-69
2022/03/02 07:15:31;;;;;;;17.20;10.52;;;;;;;-0.46;64.57;95071.06;5069183;28;20036;-69
2022/03/02 07:18:02;;;;;;;18.20;11.38;;;;;;;-0.41;64.58;95067.53;5062288;28;20052;-70
2022/03/02 07:20:28;;;;;;;14.57;10.45;;;;;;;-0.37;65.08;95058.84;5057925;28;20481;-70
2022/03/02 07:22:57;;;;;;;16.10;10.80;;;;;;;-0.37;65.18;95056.31;5087360;28;20032;-69
2022/03/02 07:25:28;;;;;;;17.35;10.48;;;;;;;-0.34;64.38;95049.34;5061565;28;20024;-69
2022/03/02 07:27:55;;;;;;;15.68;10.68;;;;;;;-0.39;64.42;95050.41;5049157;28;20034;-68
2022/03/02 07:30:20;;;;;;;15.98;10.35;;;;;;;-0.33;64.41;95053.59;5083532;28;20036;-68
2022/03/02 07:32:46;;;;;;;17.50;11.20;;;;;;;-0.29;63.67;95061.97;5085340;28;20517;-68
2022/03/02 07:35:12;;;;;;;18.23;10.75;;;;;;;-0.26;63.92;95054.19;5068796;28;20515;-68
2022/03/02 07:37:38;;;;;;;18.08;10.52;;;;;;;-0.21;63.86;95049.75;5072373;28;20113;-69
2022/03/02 07:40:04;;;;;;;16.88;10.82;;;;;;;-0.14;64.51;95055.44;5087816;28;20040;-69
2022/03/02 07:42:31;;;;;;;17.83;10.95;;;;;;;-0.08;63.85;95055.25;5083111;28;20398;-68
2022/03/02 07:44:58;;;;;;;26.02;15.95;;;;;;;-0.01;62.92;95051.56;5088505;28;20051;-68
2022/03/02 07:47:24;;;;;;;29.58;16.40;;;;;;;0.00;63.61;95048.13;5081202;28;20024;-69
2022/03/02 07:49:50;;;;;;;27.05;16.80;;;;;;;0.06;63.38;95049.63;5089366;28;20035;-70
2022/03/02 07:52:15;;;;;;;26.42;16.38;;;;;;;0.05;63.28;95040.28;5075688;28;20029;-69
2022/03/02 07:54:41;;;;;;;24.77;14.68;;;;;;;0.04;62.76;95044.56;5086449;28;20028;-69
2022/03/02 07:57:08;;;;;;;24.60;14.60;;;;;;;0.08;63.52;95037.59;5083343;28;20409;-68
2022/03/02 07:59:36;;;;;;;20.90;13.20;;;;;;;0.09;62.59;95036.72;5073112;28;20028;-69
2022/03/02 08:02:03;;;;;;;21.17;12.85;;;;;;;-0.04;62.70;95044.84;5086239;28;20036;-69
2022/03/02 08:04:29;;;;;;;23.63;13.23;;;;;;;0.00;63.37;95048.13;5086624;28;20031;-69
2022/03/02 08:06:54;;;;;;;28.45;13.70;;;;;;;-0.03;64.39;95033.75;5083716;28;20032;-68
2022/03/02 08:09:20;;;;;;;22.13;13.20;;;;;;;0.06;63.41;95031.72;5070317;28;20016;-68
2022/03/02 08:11:45;;;;;;;22.42;14.18;;;;;;;0.04;63.58;95029.22;5063141;28;20165;-68
2022/03/02 08:14:10;;;;;;;28.35;14.35;;;;;;;0.04;63.38;95029.22;5064544;28;20028;-68
2022/03/02 08:16:36;;;;;;;25.48;13.65;;;;;;;0.14;62.72;95030.53;5077305;28;20044;-69
2022/03/02 08:19:02;;;;;;;23.60;13.77;;;;;;;0.18;62.61;95032.06;5083459;28;20429;-68
2022/03/02 08:21:35;;;;;;;23.70;15.25;;;;;;;0.28;63.10;95037.69;5055756;28;20601;-68
2022/03/02 08:24:05;;;;;;;21.90;13.80;;;;;;;0.32;62.93;95023.88;5063651;28;20032;-68
2022/03/02 08:26:34;;;;;;;30.02;14.30;;;;;;;0.39;63.62;95025.31;5064433;28;20163;-68
2022/03/02 08:29:02;;;;;;;26.63;14.32;;;;;;;0.40;63.18;95018.47;5072340;28;20035;-69
2022/03/02 08:31:28;;;;;;;24.65;13.98;;;;;;;0.46;62.78;95023.31;5064901;28;20028;-68
2022/03/02 08:33:53;;;;;;;26.35;14.93;;;;;;;0.55;62.68;95019.56;5067472;28;20048;-69
2022/03/02 08:36:21;;;;;;;25.30;15.27;;;;;;;0.61;63.33;95015.06;5065531;28;20031;-69
2022/03/02 08:38:51;;;;;;;23.75;13.82;;;;;;;0.63;62.62;95012.41;5068383;28;20421;-69
2022/03/02 08:41:17;;;;;;;24.63;14.55;;;;;;;0.69;62.83;95016.44;5063579;28;20123;-68
2022/03/02 08:43:44;;;;;;;27.30;16.00;;;;;;;0.67;62.25;95003.75;5083765;28;20061;-69
2022/03/02 08:46:10;;;;;;;25.25;14.32;;;;;;;0.76;62.47;95002.53;5080042;28;20039;-69
2022/03/02 08:48:35;;;;;;;25.08;14.90;;;;;;;0.81;63.01;94998.88;5088538;28;20028;-68
2022/03/02 08:51:01;;;;;;;25.70;14.90;;;;;;;0.90;62.43;95000.22;5079113;28;20028;-69
2022/03/02 08:53:26;;;;;;;30.17;16.13;;;;;;;0.94;62.05;94996.63;5046592;28;20024;-69
2022/03/02 08:55:53;;;;;;;30.08;16.63;;;;;;;0.96;61.94;94991.44;5078940;28;20517;-68
2022/03/02 08:58:18;;;;;;;30.00;17.30;;;;;;;1.05;62.11;94997.00;5083473;28;20020;-68
2022/03/02 09:00:43;;;;;;;27.92;17.10;;;;;;;1.11;62.01;94983.97;5064577;28;20422;-68
2022/03/02 09:03:13;;;;;;;27.45;16.42;;;;;;;1.16;62.58;94991.41;5081320;28;20525;-69
2022/03/02 09:05:38;;;;;;;28.48;16.83;;;;;;;1.10;61.60;94996.81;5050775;28;20125;-68
2022/03/02 09:08:04;;;;;;;27.42;15.77;;;;;;;1.03;60.29;94982.59;5065122;28;20478;-68
2022/03/02 09:10:29;;;;;;;26.45;15.05;;;;;;;0.99;60.27;94979.34;5085869;28;20666;-69
2022/03/02 09:12:56;;;;;;;68.30;26.45;;;;;;;1.04;61.56;94982.56;5079147;28;20024;-68
2022/03/02 09:15:22;;;;;;;37.00;18.02;;;;;;;1.15;61.26;94979.53;5086089;28;20040;-69
2022/03/02 09:17:47;;;;;;;36.45;18.40;;;;;;;1.22;61.02;94974.97;5051882;28;20405;-69
2022/03/02 09:20:13;;;;;;;32.17;18.30;;;;;;;1.27;60.25;94979.00;5081932;28;20048;-68
2022/03/02 09:22:39;;;;;;;30.27;18.40;;;;;;;1.30;60.35;94973.72;5069466;28;20098;-69
2022/03/02 09:25:06;;;;;;;52.45;27.38;;;;;;;1.40;60.25;94974.16;5049995;28;20095;-68
2022/03/02 09:27:32;;;;;;;44.28;24.95;;;;;;;1.43;60.49;94968.91;5066957;28;20384;-68
2022/03/02 09:29:58;;;;;;;33.40;18.85;;;;;;;1.39;59.43;94972.50;5053449;28;20051;-69
2022/03/02 09:32:24;;;;;;;30.13;17.90;;;;;;;1.42;59.19;94968.97;5071245;28;20029;-68
2022/03/02 09:34:51;;;;;;;31.98;19.10;;;;;;;1.47;58.72;94959.34;5037886;28;20495;-68
2022/03/02 09:37:17;;;;;;;28.45;18.48;;;;;;;1.51;58.10;94963.44;5039982;28;20017;-69
2022/03/02 09:39:43;;;;;;;32.35;18.10;;;;;;;1.51;58.23;94950.66;5072891;28;20493;-68
2022/03/02 09:42:12;;;;;;;31.35;17.65;;;;;;;1.73;58.86;94964.13;5056276;28;20075;-69
2022/03/02 09:44:44;;;;;;;33.30;17.73;;;;;;;1.76;58.25;94956.31;5056364;28;20031;-68
2022/03/02 09:47:19;;;;;;;41.08;23.58;;;;;;;1.81;57.90;94955.25;5072732;28;20028;-69
2022/03/02 09:49:47;;;;;;;43.03;25.00;;;;;;;1.90;58.36;94954.84;5040850;28;20044;-68
2022/03/02 09:52:14;;;;;;;42.70;24.30;;;;;;;2.00;57.64;94950.94;5072838;28;20032;-69
2022/03/02 09:54:40;;;;;;;39.75;23.40;;;;;;;1.99;57.44;94950.09;5039379;28;20048;-69
2022/03/02 09:57:06;;;;;;;34.83;20.25;;;;;;;2.12;57.65;94952.94;5056029;28;20406;-69
2022/03/02 09:59:36;;;;;;;30.90;20.67;;;;;;;2.13;56.88;94946.06;5056239;28;20048;-69
2022/03/02 10:02:03;;;;;;;29.02;17.98;;;;;;;2.08;57.35;94937.75;5072391;28;20040;-69
2022/03/02 10:04:29;;;;;;;36.38;19.23;;;;;;;2.19;56.86;94943.22;5072575;28;20037;-69
2022/03/02 10:07:26;;;;;;;29.65;18.15;;;;;;;2.13;55.89;94939.19;5055739;28;20037;-69
2022/03/02 10:09:42;;;;;;;29.33;17.65;;;;;;;2.16;56.61;94939.06;5072530;28;20040;-69
2022/03/02 10:12:08;;;;;;;31.98;17.17;;;;;;;2.19;57.29;94933.78;5072264;28;20063;-69
2022/03/02 10:14:33;;;;;;;29.42;17.10;;;;;;;2.11;57.18;94915.38;5055869;28;20028;-69
2022/03/02 10:16:58;;;;;;;30.27;18.58;;;;;;;2.22;56.84;94918.25;5072122;28;20032;-69
2022/03/02 10:19:24;;;;;;;46.53;29.42;;;;;;;2.22;55.81;94917.41;5055471;28;20482;-69
2022/03/02 10:22:04;;;;;;;33.05;20.45;;;;;;;2.38;55.33;94926.03;5072077;28;20059;-69
2022/03/02 10:24:30;;;;;;;39.20;24.95;;;;;;;2.42;55.67;94914.72;5072314;28;20063;-69
2022/03/02 10:26:56;;;;;;;34.00;18.80;;;;;;;2.54;54.89;94904.78;5055325;28;20135;-69
2022/03/02 10:29:31;;;;;;;40.30;24.90;;;;;;;2.57;55.34;94908.00;5072289;28;20111;-68
2022/03/02 10:32:13;;;;;;;33.15;20.35;;;;;;;2.67;54.83;94910.91;5071930;28;20058;-70
2022/03/02 10:34:47;;;;;;;34.45;19.38;;;;;;;2.65;54.74;94894.81;5072104;28;20021;-70
2022/03/02 10:37:29;;;;;;;30.60;16.80;;;;;;;2.68;54.45;94899.78;5071956;28;20049;-69
2022/03/02 10:40:18;;;;;;;36.03;21.35;;;;;;;2.73;55.04;94896.94;5055030;28;20059;-69
2022/03/02 10:42:57;;;;;;;39.03;23.42;;;;;;;2.75;55.47;94888.28;5056354;28;20302;-69
2022/03/02 10:45:27;;;;;;;49.55;30.85;;;;;;;2.75;55.17;94890.03;5071658;28;20024;-70
2022/03/02 10:47:53;;;;;;;37.50;22.53;;;;;;;2.69;55.20;94881.72;5071717;28;20115;-69
2022/03/02 10:50:19;;;;;;;36.75;22.98;;;;;;;2.65;54.41;94877.66;5072852;28;20285;-69
2022/03/02 10:52:45;;;;;;;31.17;18.35;;;;;;;2.76;53.33;94873.72;5071499;28;20133;-69
2022/03/02 10:55:11;;;;;;;30.85;17.83;;;;;;;2.76;54.24;94860.88;5054903;28;20028;-70
2022/03/02 10:57:36;;;;;;;38.38;22.40;;;;;;;2.76;54.71;94863.44;5054923;28;20033;-70
2022/03/02 11:00:09;;;;;;;34.40;19.13;;;;;;;2.81;53.91;94848.66;5054698;28;20033;-70
2022/03/02 11:02:35;;;;;;;34.92;20.25;;;;;;;2.94;54.24;94848.84;5072651;28;20039;-69
2022/03/02 11:05:01;;;;;;;31.25;18.05;;;;;;;3.01;53.11;94852.72;5054702;28;20040;-70
2022/03/02 11:07:26;;;;;;;38.30;21.27;;;;;;;3.05;52.98;94842.22;5054551;28;20020;-70
2022/03/02 11:09:52;;;;;;;38.47;20.38;;;;;;;3.10;52.87;94835.13;5054647;28;20540;-71
2022/03/02 11:12:20;;;;;;;37.55;20.92;;;;;;;3.13;52.71;94832.38;5054360;28;20036;-69
2022/03/02 11:15:03;;;;;;;28.13;18.08;;;;;;;3.10;51.57;94830.00;5071123;28;20028;-69
2022/03/02 11:17:29;;;;;;;38.45;22.27;;;;;;;3.16;52.69;94828.00;5071257;28;20115;-69
2022/03/02 11:19:54;;;;;;;34.25;17.85;;;;;;;3.19;52.74;94822.72;5054380;28;20116;-70
2022/03/02 11:22:20;;;;;;;26.98;16.80;;;;;;;3.26;53.11;94814.59;5037603;28;20024;-69